sensor_id;sensor_type;location;lat;lon;timestamp;P1;durP1;ratioP1;P2;durP2;ratioP2
7426;SDS011;3755;59.316;18.092;2023-09-18T00:00:47;5.70;;;1.50;;
7426;SDS011;3755;59.316;18.092;2023-09-18T00:03:16;3.08;;;1.02;;
7426;SDS011;3755;59.316;18.092;2023-09-18T00:05:44;6.63;;;1.80;;
7426;SDS011;3755;59.316;18.092;2023-09-18T00:08:14;1.23;;;1.00;;
7426;SDS011;3755;59.316;18.092;2023-09-18T00:10:41;3.60;;;1.08;;
7426;SDS011;3755;59.316;18.092;2023-09-18T00:13:09;2.17;;;1.17;;
7426;SDS011;3755;59.316;18.092;2023-09-18T00:15:36;3.10;;;1.35;;
7426;SDS011;3755;59.316;18.092;2023-09-18T00:18:03;2.45;;;1.15;;
7426;SDS011;3755;59.316;18.092;2023-09-18T00:20:31;3.45;;;1.13;;
7426;SDS011;3755;59.316;18.092;2023-09-18T00:22:59;5.55;;;1.10;;
7426;SDS011;3755;59.316;18.092;2023-09-18T00:25:27;1.52;;;1.20;;
7426;SDS011;3755;59.316;18.092;2023-09-18T00:27:55;4.88;;;1.20;;
7426;SDS011;3755;59.316;18.092;2023-09-18T00:30:22;4.13;;;1.30;;
7426;SDS011;3755;59.316;18.092;2023-09-18T00:32:51;3.55;;;0.93;;
7426;SDS011;3755;59.316;18.092;2023-09-18T00:35:18;3.60;;;1.45;;
7426;SDS011;3755;59.316;18.092;2023-09-18T00:37:45;2.17;;;1.17;;
7426;SDS011;3755;59.316;18.092;2023-09-18T00:40:12;1.02;;;0.82;;
7426;SDS011;3755;59.316;18.092;2023-09-18T00:42:40;1.95;;;1.02;;
7426;SDS011;3755;59.316;18.092;2023-09-18T00:45:08;1.50;;;0.90;;
7426;SDS011;3755;59.316;18.092;2023-09-18T00:47:36;3.13;;;1.20;;
7426;SDS011;3755;59.316;18.092;2023-09-18T00:50:03;2.88;;;1.17;;
7426;SDS011;3755;59.316;18.092;2023-09-18T00:52:33;2.60;;;1.05;;
7426;SDS011;3755;59.316;18.092;2023-09-18T00:55:00;1.85;;;0.93;;
7426;SDS011;3755;59.316;18.092;2023-09-18T00:57:28;3.55;;;1.10;;
7426;SDS011;3755;59.316;18.092;2023-09-18T00:59:57;1.70;;;1.05;;
7426;SDS011;3755;59.316;18.092;2023-09-18T01:02:24;2.55;;;1.10;;
7426;SDS011;3755;59.316;18.092;2023-09-18T01:04:51;1.30;;;0.88;;
7426;SDS011;3755;59.316;18.092;2023-09-18T01:07:18;2.47;;;0.90;;
7426;SDS011;3755;59.316;18.092;2023-09-18T01:09:45;2.08;;;0.98;;
7426;SDS011;3755;59.316;18.092;2023-09-18T01:12:14;1.63;;;0.90;;
7426;SDS011;3755;59.316;18.092;2023-09-18T01:14:49;2.38;;;1.10;;
7426;SDS011;3755;59.316;18.092;2023-09-18T01:17:30;3.55;;;1.55;;
7426;SDS011;3755;59.316;18.092;2023-09-18T01:20:02;2.35;;;0.80;;
7426;SDS011;3755;59.316;18.092;2023-09-18T01:22:31;2.78;;;0.82;;
7426;SDS011;3755;59.316;18.092;2023-09-18T01:24:58;3.10;;;0.90;;
7426;SDS011;3755;59.316;18.092;2023-09-18T01:27:25;2.60;;;0.90;;
7426;SDS011;3755;59.316;18.092;2023-09-18T01:29:52;0.95;;;0.73;;
7426;SDS011;3755;59.316;18.092;2023-09-18T01:32:19;1.35;;;0.90;;
7426;SDS011;3755;59.316;18.092;2023-09-18T01:34:51;3.83;;;1.20;;
7426;SDS011;3755;59.316;18.092;2023-09-18T01:37:21;2.85;;;0.95;;
7426;SDS011;3755;59.316;18.092;2023-09-18T01:39:53;1.83;;;1.20;;
7426;SDS011;3755;59.316;18.092;2023-09-18T01:42:23;2.15;;;0.80;;
7426;SDS011;3755;59.316;18.092;2023-09-18T01:44:51;1.48;;;0.80;;
7426;SDS011;3755;59.316;18.092;2023-09-18T01:47:19;1.42;;;0.93;;
7426;SDS011;3755;59.316;18.092;2023-09-18T01:49:48;1.35;;;0.95;;
7426;SDS011;3755;59.316;18.092;2023-09-18T01:52:15;4.47;;;0.93;;
7426;SDS011;3755;59.316;18.092;2023-09-18T01:54:42;2.58;;;0.93;;
7426;SDS011;3755;59.316;18.092;2023-09-18T01:57:11;1.70;;;0.77;;
7426;SDS011;3755;59.316;18.092;2023-09-18T01:59:38;1.65;;;1.10;;
7426;SDS011;3755;59.316;18.092;2023-09-18T02:02:07;3.67;;;0.95;;
7426;SDS011;3755;59.316;18.092;2023-09-18T02:04:35;1.23;;;1.10;;
7426;SDS011;3755;59.316;18.092;2023-09-18T02:07:02;1.95;;;0.93;;
7426;SDS011;3755;59.316;18.092;2023-09-18T02:09:29;2.65;;;0.75;;
7426;SDS011;3755;59.316;18.092;2023-09-18T02:11:56;3.63;;;1.10;;
7426;SDS011;3755;59.316;18.092;2023-09-18T02:14:25;3.67;;;1.00;;
7426;SDS011;3755;59.316;18.092;2023-09-18T02:16:51;2.60;;;0.85;;
7426;SDS011;3755;59.316;18.092;2023-09-18T02:19:20;2.15;;;1.05;;
7426;SDS011;3755;59.316;18.092;2023-09-18T02:21:47;3.00;;;0.98;;
7426;SDS011;3755;59.316;18.092;2023-09-18T02:24:14;1.88;;;0.70;;
7426;SDS011;3755;59.316;18.092;2023-09-18T02:26:41;2.67;;;1.05;;
7426;SDS011;3755;59.316;18.092;2023-09-18T02:29:10;5.43;;;1.05;;
7426;SDS011;3755;59.316;18.092;2023-09-18T02:31:41;4.00;;;0.85;;
7426;SDS011;3755;59.316;18.092;2023-09-18T02:34:11;1.58;;;0.80;;
7426;SDS011;3755;59.316;18.092;2023-09-18T02:36:38;4.45;;;0.93;;
7426;SDS011;3755;59.316;18.092;2023-09-18T02:39:05;3.20;;;1.00;;
7426;SDS011;3755;59.316;18.092;2023-09-18T02:41:33;2.80;;;1.00;;
7426;SDS011;3755;59.316;18.092;2023-09-18T02:44:00;1.88;;;0.93;;
7426;SDS011;3755;59.316;18.092;2023-09-18T02:46:27;2.53;;;1.25;;
7426;SDS011;3755;59.316;18.092;2023-09-18T02:49:01;2.00;;;0.90;;
7426;SDS011;3755;59.316;18.092;2023-09-18T02:51:31;2.30;;;1.17;;
7426;SDS011;3755;59.316;18.092;2023-09-18T02:53:58;3.80;;;1.00;;
7426;SDS011;3755;59.316;18.092;2023-09-18T02:56:25;3.65;;;1.10;;
7426;SDS011;3755;59.316;18.092;2023-09-18T02:58:52;1.60;;;1.15;;
7426;SDS011;3755;59.316;18.092;2023-09-18T03:01:20;2.30;;;1.35;;
7426;SDS011;3755;59.316;18.092;2023-09-18T03:03:47;2.65;;;0.90;;
7426;SDS011;3755;59.316;18.092;2023-09-18T03:06:16;2.43;;;1.10;;
7426;SDS011;3755;59.316;18.092;2023-09-18T03:08:43;1.35;;;0.90;;
7426;SDS011;3755;59.316;18.092;2023-09-18T03:11:10;2.17;;;1.23;;
7426;SDS011;3755;59.316;18.092;2023-09-18T03:13:42;2.25;;;0.95;;
7426;SDS011;3755;59.316;18.092;2023-09-18T03:16:10;3.10;;;1.20;;
7426;SDS011;3755;59.316;18.092;2023-09-18T03:18:37;2.80;;;1.00;;
7426;SDS011;3755;59.316;18.092;2023-09-18T03:21:04;1.98;;;1.23;;
7426;SDS011;3755;59.316;18.092;2023-09-18T03:23:33;3.33;;;1.10;;
7426;SDS011;3755;59.316;18.092;2023-09-18T03:25:59;2.13;;;1.33;;
7426;SDS011;3755;59.316;18.092;2023-09-18T03:28:27;2.90;;;1.20;;
7426;SDS011;3755;59.316;18.092;2023-09-18T03:30:55;1.85;;;1.02;;
7426;SDS011;3755;59.316;18.092;2023-09-18T03:33:22;3.83;;;0.90;;
7426;SDS011;3755;59.316;18.092;2023-09-18T03:35:50;2.92;;;1.20;;
7426;SDS011;3755;59.316;18.092;2023-09-18T03:38:19;1.88;;;1.45;;
7426;SDS011;3755;59.316;18.092;2023-09-18T03:40:48;2.92;;;1.10;;
7426;SDS011;3755;59.316;18.092;2023-09-18T03:43:15;2.75;;;1.02;;
7426;SDS011;3755;59.316;18.092;2023-09-18T03:45:43;2.65;;;1.23;;
7426;SDS011;3755;59.316;18.092;2023-09-18T03:48:10;2.90;;;1.33;;
7426;SDS011;3755;59.316;18.092;2023-09-18T03:50:38;1.92;;;1.00;;
7426;SDS011;3755;59.316;18.092;2023-09-18T03:53:05;1.42;;;1.30;;
7426;SDS011;3755;59.316;18.092;2023-09-18T03:55:32;3.30;;;1.30;;
7426;SDS011;3755;59.316;18.092;2023-09-18T03:58:00;1.38;;;1.05;;
7426;SDS011;3755;59.316;18.092;2023-09-18T04:00:29;2.88;;;1.25;;
7426;SDS011;3755;59.316;18.092;2023-09-18T04:02:56;3.78;;;1.20;;
7426;SDS011;3755;59.316;18.092;2023-09-18T04:05:23;1.65;;;1.05;;
7426;SDS011;3755;59.316;18.092;2023-09-18T04:07:50;2.45;;;1.00;;
7426;SDS011;3755;59.316;18.092;2023-09-18T04:10:17;4.20;;;1.15;;
7426;SDS011;3755;59.316;18.092;2023-09-18T04:12:48;2.67;;;1.08;;
7426;SDS011;3755;59.316;18.092;2023-09-18T04:15:18;1.17;;;0.90;;
7426;SDS011;3755;59.316;18.092;2023-09-18T04:17:46;2.35;;;1.50;;
7426;SDS011;3755;59.316;18.092;2023-09-18T04:20:14;1.20;;;1.10;;
7426;SDS011;3755;59.316;18.092;2023-09-18T04:22:42;8.82;;;1.83;;
7426;SDS011;3755;59.316;18.092;2023-09-18T04:25:11;3.30;;;1.10;;
7426;SDS011;3755;59.316;18.092;2023-09-18T04:27:38;2.97;;;1.27;;
7426;SDS011;3755;59.316;18.092;2023-09-18T04:30:06;3.58;;;1.30;;
7426;SDS011;3755;59.316;18.092;2023-09-18T04:32:37;5.43;;;1.70;;
7426;SDS011;3755;59.316;18.092;2023-09-18T04:35:04;2.90;;;1.15;;
7426;SDS011;3755;59.316;18.092;2023-09-18T04:37:35;8.73;;;1.93;;
7426;SDS011;3755;59.316;18.092;2023-09-18T04:40:04;3.53;;;1.38;;
7426;SDS011;3755;59.316;18.092;2023-09-18T04:42:34;3.00;;;1.20;;
7426;SDS011;3755;59.316;18.092;2023-09-18T04:45:01;7.03;;;1.60;;
7426;SDS011;3755;59.316;18.092;2023-09-18T04:47:29;3.65;;;1.52;;
7426;SDS011;3755;59.316;18.092;2023-09-18T04:49:57;7.05;;;1.55;;
7426;SDS011;3755;59.316;18.092;2023-09-18T04:52:24;2.30;;;1.10;;
7426;SDS011;3755;59.316;18.092;2023-09-18T04:54:55;2.85;;;1.58;;
7426;SDS011;3755;59.316;18.092;2023-09-18T04:57:23;5.25;;;3.28;;
7426;SDS011;3755;59.316;18.092;2023-09-18T04:59:50;3.55;;;1.30;;
7426;SDS011;3755;59.316;18.092;2023-09-18T05:02:17;5.38;;;1.50;;
7426;SDS011;3755;59.316;18.092;2023-09-18T05:04:44;5.28;;;2.45;;
7426;SDS011;3755;59.316;18.092;2023-09-18T05:07:13;5.43;;;4.05;;
7426;SDS011;3755;59.316;18.092;2023-09-18T05:09:40;11.50;;;7.65;;
7426;SDS011;3755;59.316;18.092;2023-09-18T05:12:08;4.93;;;3.65;;
7426;SDS011;3755;59.316;18.092;2023-09-18T05:14:39;3.53;;;2.05;;
7426;SDS011;3755;59.316;18.092;2023-09-18T05:17:09;2.50;;;1.27;;
7426;SDS011;3755;59.316;18.092;2023-09-18T05:19:41;1.90;;;0.82;;
7426;SDS011;3755;59.316;18.092;2023-09-18T05:22:09;5.28;;;1.42;;
7426;SDS011;3755;59.316;18.092;2023-09-18T05:24:39;3.15;;;1.20;;
7426;SDS011;3755;59.316;18.092;2023-09-18T05:27:07;3.13;;;1.23;;
7426;SDS011;3755;59.316;18.092;2023-09-18T05:29:35;3.35;;;0.90;;
7426;SDS011;3755;59.316;18.092;2023-09-18T05:32:03;4.40;;;0.80;;
7426;SDS011;3755;59.316;18.092;2023-09-18T05:34:31;1.83;;;0.95;;
7426;SDS011;3755;59.316;18.092;2023-09-18T05:37:03;3.53;;;1.15;;
7426;SDS011;3755;59.316;18.092;2023-09-18T05:39:31;2.50;;;1.10;;
7426;SDS011;3755;59.316;18.092;2023-09-18T05:42:00;2.78;;;1.00;;
7426;SDS011;3755;59.316;18.092;2023-09-18T05:44:30;4.10;;;0.88;;
7426;SDS011;3755;59.316;18.092;2023-09-18T05:46:57;2.80;;;1.40;;
7426;SDS011;3755;59.316;18.092;2023-09-18T05:49:24;2.17;;;0.80;;
7426;SDS011;3755;59.316;18.092;2023-09-18T05:51:52;4.35;;;1.00;;
7426;SDS011;3755;59.316;18.092;2023-09-18T05:54:19;1.23;;;0.88;;
7426;SDS011;3755;59.316;18.092;2023-09-18T05:56:46;2.28;;;1.05;;
7426;SDS011;3755;59.316;18.092;2023-09-18T05:59:15;3.10;;;1.10;;
7426;SDS011;3755;59.316;18.092;2023-09-18T06:01:44;2.92;;;1.00;;
7426;SDS011;3755;59.316;18.092;2023-09-18T06:04:11;1.63;;;1.05;;
7426;SDS011;3755;59.316;18.092;2023-09-18T06:06:38;5.38;;;1.25;;
7426;SDS011;3755;59.316;18.092;2023-09-18T06:09:05;3.65;;;1.08;;
7426;SDS011;3755;59.316;18.092;2023-09-18T06:11:33;4.22;;;1.20;;
7426;SDS011;3755;59.316;18.092;2023-09-18T06:14:00;3.63;;;1.50;;
7426;SDS011;3755;59.316;18.092;2023-09-18T06:16:29;5.50;;;1.08;;
7426;SDS011;3755;59.316;18.092;2023-09-18T06:18:57;2.67;;;1.20;;
7426;SDS011;3755;59.316;18.092;2023-09-18T06:21:25;2.05;;;1.15;;
7426;SDS011;3755;59.316;18.092;2023-09-18T06:23:53;4.07;;;1.20;;
7426;SDS011;3755;59.316;18.092;2023-09-18T06:26:25;4.22;;;1.33;;
7426;SDS011;3755;59.316;18.092;2023-09-18T06:28:52;3.42;;;0.98;;
7426;SDS011;3755;59.316;18.092;2023-09-18T06:31:20;3.42;;;1.15;;
7426;SDS011;3755;59.316;18.092;2023-09-18T06:33:50;3.05;;;1.17;;
7426;SDS011;3755;59.316;18.092;2023-09-18T06:36:17;4.93;;;1.90;;
7426;SDS011;3755;59.316;18.092;2023-09-18T06:38:44;8.55;;;2.58;;
7426;SDS011;3755;59.316;18.092;2023-09-18T06:41:11;6.72;;;1.20;;
7426;SDS011;3755;59.316;18.092;2023-09-18T06:43:39;3.00;;;1.10;;
7426;SDS011;3755;59.316;18.092;2023-09-18T06:46:06;4.03;;;1.75;;
7426;SDS011;3755;59.316;18.092;2023-09-18T06:48:34;2.25;;;1.45;;
7426;SDS011;3755;59.316;18.092;2023-09-18T06:51:04;6.13;;;3.00;;
7426;SDS011;3755;59.316;18.092;2023-09-18T06:53:31;2.60;;;1.35;;
7426;SDS011;3755;59.316;18.092;2023-09-18T06:56:14;4.53;;;1.42;;
7426;SDS011;3755;59.316;18.092;2023-09-18T06:58:55;2.05;;;1.10;;
7426;SDS011;3755;59.316;18.092;2023-09-18T07:01:22;7.15;;;1.70;;
7426;SDS011;3755;59.316;18.092;2023-09-18T07:03:51;2.83;;;1.60;;
7426;SDS011;3755;59.316;18.092;2023-09-18T07:06:19;2.15;;;1.20;;
7426;SDS011;3755;59.316;18.092;2023-09-18T07:08:47;2.55;;;1.33;;
7426;SDS011;3755;59.316;18.092;2023-09-18T07:11:14;4.00;;;1.27;;
7426;SDS011;3755;59.316;18.092;2023-09-18T07:13:42;3.00;;;1.02;;
7426;SDS011;3755;59.316;18.092;2023-09-18T07:16:09;3.63;;;1.20;;
7426;SDS011;3755;59.316;18.092;2023-09-18T07:18:36;1.58;;;1.13;;
7426;SDS011;3755;59.316;18.092;2023-09-18T07:21:03;2.25;;;1.20;;
7426;SDS011;3755;59.316;18.092;2023-09-18T07:23:32;2.92;;;1.35;;
7426;SDS011;3755;59.316;18.092;2023-09-18T07:26:02;6.10;;;1.85;;
7426;SDS011;3755;59.316;18.092;2023-09-18T07:28:29;3.70;;;1.10;;
7426;SDS011;3755;59.316;18.092;2023-09-18T07:30:56;2.78;;;0.98;;
7426;SDS011;3755;59.316;18.092;2023-09-18T07:33:23;2.88;;;1.02;;
7426;SDS011;3755;59.316;18.092;2023-09-18T07:35:50;3.45;;;0.80;;
7426;SDS011;3755;59.316;18.092;2023-09-18T07:38:17;2.13;;;0.88;;
7426;SDS011;3755;59.316;18.092;2023-09-18T07:40:46;3.00;;;0.93;;
7426;SDS011;3755;59.316;18.092;2023-09-18T07:43:13;5.28;;;1.10;;
7426;SDS011;3755;59.316;18.092;2023-09-18T07:45:41;2.60;;;1.10;;
7426;SDS011;3755;59.316;18.092;2023-09-18T07:48:08;3.50;;;1.00;;
7426;SDS011;3755;59.316;18.092;2023-09-18T07:50:35;2.95;;;0.85;;
7426;SDS011;3755;59.316;18.092;2023-09-18T07:53:02;6.70;;;1.50;;
7426;SDS011;3755;59.316;18.092;2023-09-18T07:55:29;2.58;;;0.80;;
7426;SDS011;3755;59.316;18.092;2023-09-18T07:57:58;4.18;;;0.80;;
7426;SDS011;3755;59.316;18.092;2023-09-18T08:00:25;4.82;;;1.00;;
7426;SDS011;3755;59.316;18.092;2023-09-18T08:02:52;3.17;;;0.80;;
7426;SDS011;3755;59.316;18.092;2023-09-18T08:05:23;3.13;;;1.10;;
7426;SDS011;3755;59.316;18.092;2023-09-18T08:07:53;2.78;;;0.68;;
7426;SDS011;3755;59.316;18.092;2023-09-18T08:10:22;3.17;;;0.90;;
7426;SDS011;3755;59.316;18.092;2023-09-18T08:12:49;3.03;;;0.90;;
7426;SDS011;3755;59.316;18.092;2023-09-18T08:15:19;1.33;;;0.70;;
7426;SDS011;3755;59.316;18.092;2023-09-18T08:17:46;2.15;;;0.90;;
7426;SDS011;3755;59.316;18.092;2023-09-18T08:20:14;3.45;;;0.80;;
7426;SDS011;3755;59.316;18.092;2023-09-18T08:22:42;4.88;;;1.00;;
7426;SDS011;3755;59.316;18.092;2023-09-18T08:25:09;4.10;;;0.90;;
7426;SDS011;3755;59.316;18.092;2023-09-18T08:27:37;4.95;;;0.77;;
7426;SDS011;3755;59.316;18.092;2023-09-18T08:30:09;3.58;;;0.90;;
7426;SDS011;3755;59.316;18.092;2023-09-18T08:32:38;4.68;;;0.98;;
7426;SDS011;3755;59.316;18.092;2023-09-18T08:35:06;3.47;;;0.90;;
7426;SDS011;3755;59.316;18.092;2023-09-18T08:37:34;1.75;;;0.82;;
7426;SDS011;3755;59.316;18.092;2023-09-18T08:40:01;1.50;;;0.65;;
7426;SDS011;3755;59.316;18.092;2023-09-18T08:42:34;3.95;;;0.90;;
7426;SDS011;3755;59.316;18.092;2023-09-18T08:45:02;2.08;;;0.60;;
7426;SDS011;3755;59.316;18.092;2023-09-18T08:47:34;2.72;;;1.10;;
7426;SDS011;3755;59.316;18.092;2023-09-18T08:50:04;3.17;;;1.02;;
7426;SDS011;3755;59.316;18.092;2023-09-18T08:52:33;2.78;;;0.73;;
7426;SDS011;3755;59.316;18.092;2023-09-18T08:55:01;2.57;;;0.70;;
7426;SDS011;3755;59.316;18.092;2023-09-18T08:57:29;2.95;;;0.80;;
7426;SDS011;3755;59.316;18.092;2023-09-18T08:59:57;2.03;;;0.80;;
7426;SDS011;3755;59.316;18.092;2023-09-18T09:02:29;1.30;;;0.80;;
7426;SDS011;3755;59.316;18.092;2023-09-18T09:04:56;2.22;;;0.60;;
7426;SDS011;3755;59.316;18.092;2023-09-18T09:07:25;3.13;;;1.02;;
7426;SDS011;3755;59.316;18.092;2023-09-18T09:09:53;5.68;;;0.77;;
7426;SDS011;3755;59.316;18.092;2023-09-18T09:15:15;3.05;;;0.93;;
7426;SDS011;3755;59.316;18.092;2023-09-18T09:17:43;6.75;;;1.00;;
7426;SDS011;3755;59.316;18.092;2023-09-18T09:20:10;1.88;;;0.80;;
7426;SDS011;3755;59.316;18.092;2023-09-18T09:22:41;4.20;;;0.90;;
7426;SDS011;3755;59.316;18.092;2023-09-18T09:27:58;5.20;;;0.73;;
7426;SDS011;3755;59.316;18.092;2023-09-18T09:30:26;3.05;;;0.80;;
7426;SDS011;3755;59.316;18.092;2023-09-18T09:32:54;2.65;;;0.73;;
7426;SDS011;3755;59.316;18.092;2023-09-18T09:35:22;4.15;;;0.70;;
7426;SDS011;3755;59.316;18.092;2023-09-18T09:37:53;5.82;;;0.80;;
7426;SDS011;3755;59.316;18.092;2023-09-18T09:40:23;7.30;;;0.77;;
7426;SDS011;3755;59.316;18.092;2023-09-18T09:42:51;5.32;;;1.00;;
7426;SDS011;3755;59.316;18.092;2023-09-18T09:45:25;4.93;;;1.08;;
7426;SDS011;3755;59.316;18.092;2023-09-18T09:47:54;3.17;;;1.25;;
7426;SDS011;3755;59.316;18.092;2023-09-18T09:50:21;4.07;;;1.17;;
7426;SDS011;3755;59.316;18.092;2023-09-18T09:52:50;1.75;;;0.77;;
7426;SDS011;3755;59.316;18.092;2023-09-18T09:55:22;1.58;;;0.60;;
7426;SDS011;3755;59.316;18.092;2023-09-18T09:57:51;4.30;;;0.90;;
7426;SDS011;3755;59.316;18.092;2023-09-18T10:00:22;5.93;;;0.70;;
7426;SDS011;3755;59.316;18.092;2023-09-18T10:02:56;2.08;;;0.80;;
7426;SDS011;3755;59.316;18.092;2023-09-18T10:05:27;1.98;;;0.80;;
7426;SDS011;3755;59.316;18.092;2023-09-18T10:07:59;3.10;;;1.00;;
7426;SDS011;3755;59.316;18.092;2023-09-18T10:10:33;5.30;;;1.08;;
7426;SDS011;3755;59.316;18.092;2023-09-18T10:13:04;2.97;;;1.05;;
7426;SDS011;3755;59.316;18.092;2023-09-18T10:15:38;3.47;;;0.80;;
7426;SDS011;3755;59.316;18.092;2023-09-18T10:18:10;3.88;;;0.90;;
7426;SDS011;3755;59.316;18.092;2023-09-18T10:20:46;1.50;;;0.73;;
7426;SDS011;3755;59.316;18.092;2023-09-18T10:23:20;1.40;;;0.50;;
7426;SDS011;3755;59.316;18.092;2023-09-18T10:26:00;2.15;;;1.10;;
7426;SDS011;3755;59.316;18.092;2023-09-18T10:28:29;3.13;;;0.95;;
7426;SDS011;3755;59.316;18.092;2023-09-18T10:30:57;2.17;;;0.93;;
7426;SDS011;3755;59.316;18.092;2023-09-18T10:33:28;2.22;;;0.80;;
7426;SDS011;3755;59.316;18.092;2023-09-18T10:35:56;2.63;;;0.80;;
7426;SDS011;3755;59.316;18.092;2023-09-18T10:38:26;5.18;;;0.70;;
7426;SDS011;3755;59.316;18.092;2023-09-18T10:40:55;7.22;;;1.27;;
7426;SDS011;3755;59.316;18.092;2023-09-18T10:43:25;2.50;;;0.95;;
7426;SDS011;3755;59.316;18.092;2023-09-18T10:45:52;3.90;;;0.90;;
7426;SDS011;3755;59.316;18.092;2023-09-18T10:48:19;2.20;;;0.65;;
7426;SDS011;3755;59.316;18.092;2023-09-18T10:50:47;2.80;;;0.90;;
7426;SDS011;3755;59.316;18.092;2023-09-18T10:53:15;4.70;;;0.82;;
7426;SDS011;3755;59.316;18.092;2023-09-18T10:55:42;1.73;;;0.70;;
7426;SDS011;3755;59.316;18.092;2023-09-18T10:58:10;2.33;;;1.08;;
7426;SDS011;3755;59.316;18.092;2023-09-18T11:00:50;2.83;;;0.68;;
7426;SDS011;3755;59.316;18.092;2023-09-18T11:03:18;1.65;;;0.70;;
7426;SDS011;3755;59.316;18.092;2023-09-18T11:05:48;2.90;;;0.82;;
7426;SDS011;3755;59.316;18.092;2023-09-18T11:08:29;2.45;;;0.70;;
7426;SDS011;3755;59.316;18.092;2023-09-18T11:10:59;1.90;;;0.85;;
7426;SDS011;3755;59.316;18.092;2023-09-18T11:13:35;7.18;;;1.00;;
7426;SDS011;3755;59.316;18.092;2023-09-18T11:16:15;4.18;;;0.80;;
7426;SDS011;3755;59.316;18.092;2023-09-18T11:18:48;4.82;;;0.90;;
7426;SDS011;3755;59.316;18.092;2023-09-18T11:21:17;5.32;;;0.85;;
7426;SDS011;3755;59.316;18.092;2023-09-18T11:23:51;4.80;;;0.70;;
7426;SDS011;3755;59.316;18.092;2023-09-18T11:26:24;1.77;;;0.80;;
7426;SDS011;3755;59.316;18.092;2023-09-18T11:28:55;2.28;;;0.60;;
7426;SDS011;3755;59.316;18.092;2023-09-18T11:34:20;1.08;;;0.50;;
7426;SDS011;3755;59.316;18.092;2023-09-18T11:36:48;4.25;;;0.65;;
7426;SDS011;3755;59.316;18.092;2023-09-18T11:42:08;1.45;;;0.80;;
7426;SDS011;3755;59.316;18.092;2023-09-18T11:44:36;1.00;;;0.70;;
7426;SDS011;3755;59.316;18.092;2023-09-18T11:47:09;3.10;;;0.65;;
7426;SDS011;3755;59.316;18.092;2023-09-18T11:49:47;4.57;;;1.00;;
7426;SDS011;3755;59.316;18.092;2023-09-18T11:52:19;1.80;;;0.80;;
7426;SDS011;3755;59.316;18.092;2023-09-18T11:54:47;1.98;;;0.68;;
7426;SDS011;3755;59.316;18.092;2023-09-18T11:57:15;2.35;;;0.80;;
7426;SDS011;3755;59.316;18.092;2023-09-18T11:59:43;2.85;;;0.90;;
7426;SDS011;3755;59.316;18.092;2023-09-18T12:02:12;8.50;;;1.38;;
7426;SDS011;3755;59.316;18.092;2023-09-18T12:04:45;5.43;;;1.08;;
7426;SDS011;3755;59.316;18.092;2023-09-18T12:07:13;4.90;;;0.95;;
7426;SDS011;3755;59.316;18.092;2023-09-18T12:09:40;3.13;;;0.65;;
7426;SDS011;3755;59.316;18.092;2023-09-18T12:12:07;2.70;;;0.70;;
7426;SDS011;3755;59.316;18.092;2023-09-18T12:14:35;2.90;;;0.80;;
7426;SDS011;3755;59.316;18.092;2023-09-18T12:17:04;4.00;;;0.90;;
7426;SDS011;3755;59.316;18.092;2023-09-18T12:19:34;1.33;;;0.65;;
7426;SDS011;3755;59.316;18.092;2023-09-18T12:22:01;2.30;;;0.80;;
7426;SDS011;3755;59.316;18.092;2023-09-18T12:24:29;6.72;;;1.02;;
7426;SDS011;3755;59.316;18.092;2023-09-18T12:26:57;2.55;;;1.00;;
7426;SDS011;3755;59.316;18.092;2023-09-18T12:29:24;5.65;;;1.58;;
7426;SDS011;3755;59.316;18.092;2023-09-18T12:31:51;6.38;;;0.90;;
7426;SDS011;3755;59.316;18.092;2023-09-18T12:34:18;3.97;;;0.88;;
7426;SDS011;3755;59.316;18.092;2023-09-18T12:36:49;3.95;;;1.20;;
7426;SDS011;3755;59.316;18.092;2023-09-18T12:39:17;2.15;;;0.60;;
7426;SDS011;3755;59.316;18.092;2023-09-18T12:41:45;2.63;;;0.90;;
7426;SDS011;3755;59.316;18.092;2023-09-18T12:44:13;2.42;;;0.80;;
7426;SDS011;3755;59.316;18.092;2023-09-18T12:46:41;1.95;;;0.70;;
7426;SDS011;3755;59.316;18.092;2023-09-18T12:49:16;2.75;;;0.70;;
7426;SDS011;3755;59.316;18.092;2023-09-18T12:51:57;1.15;;;0.63;;
7426;SDS011;3755;59.316;18.092;2023-09-18T12:54:37;0.70;;;0.57;;
7426;SDS011;3755;59.316;18.092;2023-09-18T12:57:05;1.75;;;0.80;;
7426;SDS011;3755;59.316;18.092;2023-09-18T12:59:32;2.45;;;0.70;;
7426;SDS011;3755;59.316;18.092;2023-09-18T13:02:00;4.30;;;0.77;;
7426;SDS011;3755;59.316;18.092;2023-09-18T13:04:29;4.63;;;1.15;;
7426;SDS011;3755;59.316;18.092;2023-09-18T13:07:05;2.22;;;0.65;;
7426;SDS011;3755;59.316;18.092;2023-09-18T13:09:33;6.60;;;1.30;;
7426;SDS011;3755;59.316;18.092;2023-09-18T13:12:02;4.90;;;0.77;;
7426;SDS011;3755;59.316;18.092;2023-09-18T13:14:40;3.65;;;0.93;;
7426;SDS011;3755;59.316;18.092;2023-09-18T13:17:23;4.80;;;0.88;;
7426;SDS011;3755;59.316;18.092;2023-09-18T13:19:50;2.22;;;1.05;;
7426;SDS011;3755;59.316;18.092;2023-09-18T13:22:23;2.88;;;1.00;;
7426;SDS011;3755;59.316;18.092;2023-09-18T13:24:55;0.95;;;0.55;;
7426;SDS011;3755;59.316;18.092;2023-09-18T13:27:22;3.33;;;0.98;;
7426;SDS011;3755;59.316;18.092;2023-09-18T13:29:51;2.15;;;0.77;;
7426;SDS011;3755;59.316;18.092;2023-09-18T13:32:19;5.15;;;0.90;;
7426;SDS011;3755;59.316;18.092;2023-09-18T13:34:47;2.03;;;0.82;;
7426;SDS011;3755;59.316;18.092;2023-09-18T13:37:14;3.13;;;0.93;;
7426;SDS011;3755;59.316;18.092;2023-09-18T13:39:44;4.35;;;0.63;;
7426;SDS011;3755;59.316;18.092;2023-09-18T13:42:11;4.55;;;0.90;;
7426;SDS011;3755;59.316;18.092;2023-09-18T13:44:38;3.92;;;0.90;;
7426;SDS011;3755;59.316;18.092;2023-09-18T13:47:05;3.20;;;0.85;;
7426;SDS011;3755;59.316;18.092;2023-09-18T13:49:32;4.22;;;1.27;;
7426;SDS011;3755;59.316;18.092;2023-09-18T13:51:59;3.95;;;0.70;;
7426;SDS011;3755;59.316;18.092;2023-09-18T13:54:26;8.20;;;1.58;;
7426;SDS011;3755;59.316;18.092;2023-09-18T13:56:54;4.40;;;1.30;;
7426;SDS011;3755;59.316;18.092;2023-09-18T13:59:21;4.70;;;1.08;;
7426;SDS011;3755;59.316;18.092;2023-09-18T14:01:48;4.40;;;1.40;;
7426;SDS011;3755;59.316;18.092;2023-09-18T14:04:17;3.90;;;1.00;;
7426;SDS011;3755;59.316;18.092;2023-09-18T14:06:44;6.60;;;1.25;;
7426;SDS011;3755;59.316;18.092;2023-09-18T14:09:11;2.47;;;0.93;;
7426;SDS011;3755;59.316;18.092;2023-09-18T14:11:38;2.80;;;0.85;;
7426;SDS011;3755;59.316;18.092;2023-09-18T14:14:07;1.98;;;0.90;;
7426;SDS011;3755;59.316;18.092;2023-09-18T14:16:34;1.52;;;0.70;;
7426;SDS011;3755;59.316;18.092;2023-09-18T14:19:01;1.52;;;0.80;;
7426;SDS011;3755;59.316;18.092;2023-09-18T14:21:27;4.13;;;1.02;;
7426;SDS011;3755;59.316;18.092;2023-09-18T14:23:58;3.17;;;1.23;;
7426;SDS011;3755;59.316;18.092;2023-09-18T14:26:25;2.75;;;1.02;;
7426;SDS011;3755;59.316;18.092;2023-09-18T14:28:53;2.67;;;0.70;;
7426;SDS011;3755;59.316;18.092;2023-09-18T14:31:22;4.30;;;1.13;;
7426;SDS011;3755;59.316;18.092;2023-09-18T14:33:49;4.05;;;1.08;;
7426;SDS011;3755;59.316;18.092;2023-09-18T14:36:16;1.38;;;0.60;;
7426;SDS011;3755;59.316;18.092;2023-09-18T14:38:43;4.53;;;1.27;;
7426;SDS011;3755;59.316;18.092;2023-09-18T14:41:10;2.33;;;0.90;;
7426;SDS011;3755;59.316;18.092;2023-09-18T14:43:38;2.00;;;0.80;;
7426;SDS011;3755;59.316;18.092;2023-09-18T14:46:05;4.93;;;1.52;;
7426;SDS011;3755;59.316;18.092;2023-09-18T14:48:33;4.95;;;1.13;;
7426;SDS011;3755;59.316;18.092;2023-09-18T14:51:00;2.75;;;1.13;;
7426;SDS011;3755;59.316;18.092;2023-09-18T14:53:28;2.17;;;1.00;;
7426;SDS011;3755;59.316;18.092;2023-09-18T14:55:55;3.40;;;0.82;;
7426;SDS011;3755;59.316;18.092;2023-09-18T14:58:23;1.63;;;0.98;;
7426;SDS011;3755;59.316;18.092;2023-09-18T15:00:50;2.90;;;0.80;;
7426;SDS011;3755;59.316;18.092;2023-09-18T15:03:17;1.98;;;1.00;;
7426;SDS011;3755;59.316;18.092;2023-09-18T15:05:45;2.83;;;0.82;;
7426;SDS011;3755;59.316;18.092;2023-09-18T15:08:12;2.78;;;0.90;;
7426;SDS011;3755;59.316;18.092;2023-09-18T15:10:42;2.22;;;0.90;;
7426;SDS011;3755;59.316;18.092;2023-09-18T15:13:09;2.63;;;0.88;;
7426;SDS011;3755;59.316;18.092;2023-09-18T15:15:36;2.85;;;1.00;;
7426;SDS011;3755;59.316;18.092;2023-09-18T15:18:03;2.47;;;1.00;;
7426;SDS011;3755;59.316;18.092;2023-09-18T15:20:30;2.15;;;0.82;;